sensor_id;sensor_type;location;lat;lon;timestamp;P1;durP1;ratioP1;P2;durP2;ratioP2
14528;SDS011;7351;51.194;4.098;2022-10-16T10:00:52;13.30;;;3.73;;
14528;SDS011;7351;51.194;4.098;2022-10-16T10:03:30;8.67;;;2.90;;
14528;SDS011;7351;51.194;4.098;2022-10-16T10:06:05;8.20;;;4.53;;
14528;SDS011;7351;51.194;4.098;2022-10-16T10:08:52;11.27;;;3.40;;
14528;SDS011;7351;51.194;4.098;2022-10-16T10:11:36;8.57;;;3.80;;
14528;SDS011;7351;51.194;4.098;2022-10-16T10:14:09;7.97;;;3.57;;
14528;SDS011;7351;51.194;4.098;2022-10-16T10:16:46;13.07;;;3.67;;
14528;SDS011;7351;51.194;4.098;2022-10-16T10:19:18;10.10;;;3.20;;
14528;SDS011;7351;51.194;4.098;2022-10-16T10:21:46;8.60;;;4.20;;
14528;SDS011;7351;51.194;4.098;2022-10-16T10:24:14;10.27;;;3.07;;
14528;SDS011;7351;51.194;4.098;2022-10-16T10:26:45;11.10;;;3.97;;
14528;SDS011;7351;51.194;4.098;2022-10-16T10:29:19;6.67;;;3.33;;
14528;SDS011;7351;51.194;4.098;2022-10-16T10:31:58;7.47;;;3.67;;
14528;SDS011;7351;51.194;4.098;2022-10-16T10:34:39;11.20;;;3.63;;
14528;SDS011;7351;51.194;4.098;2022-10-16T10:37:22;9.83;;;3.70;;
14528;SDS011;7351;51.194;4.098;2022-10-16T10:40:02;11.43;;;3.20;;
14528;SDS011;7351;51.194;4.098;2022-10-16T10:42:39;8.43;;;3.00;;
14528;SDS011;7351;51.194;4.098;2022-10-16T10:45:13;14.60;;;3.53;;
14528;SDS011;7351;51.194;4.098;2022-10-16T10:47:51;4.83;;;2.30;;
14528;SDS011;7351;51.194;4.098;2022-10-16T10:50:34;12.77;;;3.87;;
14528;SDS011;7351;51.194;4.098;2022-10-16T10:53:22;8.57;;;2.70;;
14528;SDS011;7351;51.194;4.098;2022-10-16T10:55:59;12.10;;;2.67;;
14528;SDS011;7351;51.194;4.098;2022-10-16T10:58:42;8.13;;;3.07;;
14528;SDS011;7351;51.194;4.098;2022-10-16T11:01:25;13.03;;;3.37;;
14528;SDS011;7351;51.194;4.098;2022-10-16T11:04:01;15.77;;;2.97;;
14528;SDS011;7351;51.194;4.098;2022-10-16T11:06:42;10.20;;;2.53;;
14528;SDS011;7351;51.194;4.098;2022-10-16T11:09:15;9.07;;;3.93;;
14528;SDS011;7351;51.194;4.098;2022-10-16T11:11:50;13.23;;;3.63;;
14528;SDS011;7351;51.194;4.098;2022-10-16T11:14:21;7.77;;;2.90;;
14528;SDS011;7351;51.194;4.098;2022-10-16T11:16:56;8.77;;;3.00;;
14528;SDS011;7351;51.194;4.098;2022-10-16T11:19:31;10.00;;;4.33;;
14528;SDS011;7351;51.194;4.098;2022-10-16T11:22:04;13.60;;;2.83;;
14528;SDS011;7351;51.194;4.098;2022-10-16T11:24:41;16.93;;;2.93;;
14528;SDS011;7351;51.194;4.098;2022-10-16T11:27:14;17.30;;;3.20;;
14528;SDS011;7351;51.194;4.098;2022-10-16T11:29:45;12.97;;;3.03;;
14528;SDS011;7351;51.194;4.098;2022-10-16T11:32:19;17.87;;;3.17;;
14528;SDS011;7351;51.194;4.098;2022-10-16T11:34:51;22.47;;;3.63;;
14528;SDS011;7351;51.194;4.098;2022-10-16T11:37:24;25.17;;;5.33;;
14528;SDS011;7351;51.194;4.098;2022-10-16T11:39:58;13.10;;;3.20;;
14528;SDS011;7351;51.194;4.098;2022-10-16T11:42:36;45.07;;;5.97;;
14528;SDS011;7351;51.194;4.098;2022-10-16T11:45:07;9.70;;;3.17;;
14528;SDS011;7351;51.194;4.098;2022-10-16T11:47:45;9.13;;;2.97;;
14528;SDS011;7351;51.194;4.098;2022-10-16T11:50:20;16.83;;;2.97;;
14528;SDS011;7351;51.194;4.098;2022-10-16T11:52:52;10.67;;;3.27;;
14528;SDS011;7351;51.194;4.098;2022-10-16T11:55:26;13.77;;;2.17;;
14528;SDS011;7351;51.194;4.098;2022-10-16T11:57:57;10.33;;;3.43;;
14528;SDS011;7351;51.194;4.098;2022-10-16T12:00:28;7.20;;;3.00;;
14528;SDS011;7351;51.194;4.098;2022-10-16T12:03:00;6.97;;;2.70;;
14528;SDS011;7351;51.194;4.098;2022-10-16T12:05:41;8.37;;;2.73;;
14528;SDS011;7351;51.194;4.098;2022-10-16T12:08:28;10.00;;;2.80;;
14528;SDS011;7351;51.194;4.098;2022-10-16T12:11:05;9.93;;;3.00;;
14528;SDS011;7351;51.194;4.098;2022-10-16T12:13:34;7.67;;;2.23;;
14528;SDS011;7351;51.194;4.098;2022-10-16T12:16:08;8.87;;;2.60;;
14528;SDS011;7351;51.194;4.098;2022-10-16T12:18:48;8.63;;;2.37;;
14528;SDS011;7351;51.194;4.098;2022-10-16T12:21:17;13.30;;;3.30;;
14528;SDS011;7351;51.194;4.098;2022-10-16T12:23:49;13.17;;;2.50;;
14528;SDS011;7351;51.194;4.098;2022-10-16T12:26:24;8.17;;;2.80;;
14528;SDS011;7351;51.194;4.098;2022-10-16T12:28:52;14.27;;;3.20;;
14528;SDS011;7351;51.194;4.098;2022-10-16T12:31:20;9.10;;;2.30;;
14528;SDS011;7351;51.194;4.098;2022-10-16T12:33:56;10.37;;;2.97;;
14528;SDS011;7351;51.194;4.098;2022-10-16T12:36:28;7.47;;;2.37;;
14528;SDS011;7351;51.194;4.098;2022-10-16T12:38:58;4.93;;;2.30;;
14528;SDS011;7351;51.194;4.098;2022-10-16T12:41:26;7.87;;;2.77;;
14528;SDS011;7351;51.194;4.098;2022-10-16T12:43:55;5.90;;;2.60;;
14528;SDS011;7351;51.194;4.098;2022-10-16T12:46:36;10.07;;;2.43;;
14528;SDS011;7351;51.194;4.098;2022-10-16T12:49:06;11.23;;;2.83;;
14528;SDS011;7351;51.194;4.098;2022-10-16T12:51:48;10.47;;;2.63;;
14528;SDS011;7351;51.194;4.098;2022-10-16T12:54:16;7.23;;;2.57;;
14528;SDS011;7351;51.194;4.098;2022-10-16T12:56:48;11.10;;;3.30;;
14528;SDS011;7351;51.194;4.098;2022-10-16T12:59:24;5.93;;;2.83;;
14528;SDS011;7351;51.194;4.098;2022-10-16T13:02:06;11.43;;;2.90;;
14528;SDS011;7351;51.194;4.098;2022-10-16T13:04:47;9.67;;;2.93;;
14528;SDS011;7351;51.194;4.098;2022-10-16T13:07:40;8.47;;;2.70;;
14528;SDS011;7351;51.194;4.098;2022-10-16T13:10:16;6.87;;;2.33;;
14528;SDS011;7351;51.194;4.098;2022-10-16T13:12:58;8.93;;;2.00;;
14528;SDS011;7351;51.194;4.098;2022-10-16T13:15:56;6.47;;;2.20;;
14528;SDS011;7351;51.194;4.098;2022-10-16T13:18:35;5.53;;;2.07;;
14528;SDS011;7351;51.194;4.098;2022-10-16T13:21:14;4.17;;;2.03;;
14528;SDS011;7351;51.194;4.098;2022-10-16T13:23:54;8.33;;;2.27;;
14528;SDS011;7351;51.194;4.098;2022-10-16T13:26:29;2.80;;;1.63;;
14528;SDS011;7351;51.194;4.098;2022-10-16T13:29:03;5.87;;;1.70;;
14528;SDS011;7351;51.194;4.098;2022-10-16T13:31:30;13.47;;;2.53;;
14528;SDS011;7351;51.194;4.098;2022-10-16T13:33:59;5.07;;;2.20;;
14528;SDS011;7351;51.194;4.098;2022-10-16T13:36:28;5.17;;;2.13;;
14528;SDS011;7351;51.194;4.098;2022-10-16T13:39:03;4.60;;;2.03;;
14528;SDS011;7351;51.194;4.098;2022-10-16T13:41:37;10.10;;;3.47;;
14528;SDS011;7351;51.194;4.098;2022-10-16T13:44:04;2.67;;;1.57;;
14528;SDS011;7351;51.194;4.098;2022-10-16T13:46:37;7.00;;;1.90;;
14528;SDS011;7351;51.194;4.098;2022-10-16T13:49:05;13.00;;;2.57;;
14528;SDS011;7351;51.194;4.098;2022-10-16T13:51:37;5.43;;;2.43;;
14528;SDS011;7351;51.194;4.098;2022-10-16T13:54:07;2.33;;;1.40;;
14528;SDS011;7351;51.194;4.098;2022-10-16T13:56:38;8.73;;;2.00;;
14528;SDS011;7351;51.194;4.098;2022-10-16T13:59:06;10.40;;;2.30;;
14528;SDS011;7351;51.194;4.098;2022-10-16T14:01:48;3.17;;;2.40;;
14528;SDS011;7351;51.194;4.098;2022-10-16T14:04:16;4.63;;;2.10;;
14528;SDS011;7351;51.194;4.098;2022-10-16T14:06:44;6.03;;;1.73;;
14528;SDS011;7351;51.194;4.098;2022-10-16T14:09:16;8.60;;;7.70;;
14528;SDS011;7351;51.194;4.098;2022-10-16T14:11:51;4.63;;;2.47;;
14528;SDS011;7351;51.194;4.098;2022-10-16T14:14:20;3.93;;;1.80;;
14528;SDS011;7351;51.194;4.098;2022-10-16T14:16:48;4.47;;;1.63;;
14528;SDS011;7351;51.194;4.098;2022-10-16T14:19:18;6.38;;;2.63;;
14528;SDS011;7351;51.194;4.098;2022-10-16T14:21:47;6.17;;;1.50;;
14528;SDS011;7351;51.194;4.098;2022-10-16T14:24:22;5.80;;;2.27;;
14528;SDS011;7351;51.194;4.098;2022-10-16T14:26:53;5.53;;;1.67;;
14528;SDS011;7351;51.194;4.098;2022-10-16T14:29:21;4.83;;;1.10;;
14528;SDS011;7351;51.194;4.098;2022-10-16T14:31:56;3.00;;;1.47;;
14528;SDS011;7351;51.194;4.098;2022-10-16T14:34:28;7.50;;;1.90;;
14528;SDS011;7351;51.194;4.098;2022-10-16T14:36:58;7.13;;;1.43;;
14528;SDS011;7351;51.194;4.098;2022-10-16T14:39:33;7.63;;;1.90;;
14528;SDS011;7351;51.194;4.098;2022-10-16T14:42:01;6.17;;;1.97;;
14528;SDS011;7351;51.194;4.098;2022-10-16T14:44:29;5.93;;;1.67;;
14528;SDS011;7351;51.194;4.098;2022-10-16T14:47:06;3.73;;;1.67;;
14528;SDS011;7351;51.194;4.098;2022-10-16T14:49:35;5.83;;;1.63;;
14528;SDS011;7351;51.194;4.098;2022-10-16T14:52:04;8.53;;;2.13;;
14528;SDS011;7351;51.194;4.098;2022-10-16T14:54:36;2.67;;;1.10;;
14528;SDS011;7351;51.194;4.098;2022-10-16T14:57:03;2.77;;;1.80;;
14528;SDS011;7351;51.194;4.098;2022-10-16T14:59:32;7.70;;;1.80;;
14528;SDS011;7351;51.194;4.098;2022-10-16T15:02:02;7.67;;;2.20;;
14528;SDS011;7351;51.194;4.098;2022-10-16T15:04:44;6.67;;;2.17;;
14528;SDS011;7351;51.194;4.098;2022-10-16T15:07:11;4.10;;;1.77;;
14528;SDS011;7351;51.194;4.098;2022-10-16T15:09:39;3.87;;;2.10;;
14528;SDS011;7351;51.194;4.098;2022-10-16T15:12:06;4.17;;;1.67;;
14528;SDS011;7351;51.194;4.098;2022-10-16T15:14:33;8.37;;;1.83;;
14528;SDS011;7351;51.194;4.098;2022-10-16T15:17:00;2.27;;;2.07;;
14528;SDS011;7351;51.194;4.098;2022-10-16T15:19:28;3.30;;;1.33;;
14528;SDS011;7351;51.194;4.098;2022-10-16T15:21:55;3.17;;;1.73;;
14528;SDS011;7351;51.194;4.098;2022-10-16T15:24:22;3.43;;;1.93;;
14528;SDS011;7351;51.194;4.098;2022-10-16T15:26:51;3.87;;;2.10;;
14528;SDS011;7351;51.194;4.098;2022-10-16T15:29:18;3.73;;;2.03;;
14528;SDS011;7351;51.194;4.098;2022-10-16T15:31:45;3.67;;;2.53;;
14528;SDS011;7351;51.194;4.098;2022-10-16T15:34:12;3.40;;;1.93;;
14528;SDS011;7351;51.194;4.098;2022-10-16T15:36:44;3.33;;;2.10;;
14528;SDS011;7351;51.194;4.098;2022-10-16T15:39:12;7.97;;;3.23;;
14528;SDS011;7351;51.194;4.098;2022-10-16T15:41:40;3.83;;;1.93;;
14528;SDS011;7351;51.194;4.098;2022-10-16T15:44:09;6.70;;;2.40;;
14528;SDS011;7351;51.194;4.098;2022-10-16T15:46:36;3.37;;;2.40;;
14528;SDS011;7351;51.194;4.098;2022-10-16T15:49:03;5.27;;;2.63;;
14528;SDS011;7351;51.194;4.098;2022-10-16T15:51:30;11.10;;;5.53;;
14528;SDS011;7351;51.194;4.098;2022-10-16T15:53:58;8.43;;;7.63;;
14528;SDS011;7351;51.194;4.098;2022-10-16T15:56:26;6.03;;;4.63;;
14528;SDS011;7351;51.194;4.098;2022-10-16T15:58:55;7.47;;;3.77;;
14528;SDS011;7351;51.194;4.098;2022-10-16T16:01:24;5.63;;;3.30;;
14528;SDS011;7351;51.194;4.098;2022-10-16T16:06:02;8.97;;;4.13;;
14528;SDS011;7351;51.194;4.098;2022-10-16T16:06:41;7.97;;;6.50;;
14528;SDS011;7351;51.194;4.098;2022-10-16T16:09:09;10.93;;;6.53;;
14528;SDS011;7351;51.194;4.098;2022-10-16T16:11:36;6.40;;;4.60;;
14528;SDS011;7351;51.194;4.098;2022-10-16T16:14:04;9.40;;;6.73;;
14528;SDS011;7351;51.194;4.098;2022-10-16T16:16:32;8.47;;;6.67;;
14528;SDS011;7351;51.194;4.098;2022-10-16T16:19:02;7.23;;;5.40;;
14528;SDS011;7351;51.194;4.098;2022-10-16T16:21:30;8.47;;;4.23;;
14528;SDS011;7351;51.194;4.098;2022-10-16T16:23:57;8.20;;;4.87;;
14528;SDS011;7351;51.194;4.098;2022-10-16T16:26:25;3.93;;;3.53;;
14528;SDS011;7351;51.194;4.098;2022-10-16T16:28:56;9.67;;;5.20;;
14528;SDS011;7351;51.194;4.098;2022-10-16T16:31:23;7.83;;;4.07;;
14528;SDS011;7351;51.194;4.098;2022-10-16T16:33:52;8.93;;;5.53;;
14528;SDS011;7351;51.194;4.098;2022-10-16T16:36:23;8.13;;;4.20;;
14528;SDS011;7351;51.194;4.098;2022-10-16T16:38:51;9.43;;;4.27;;
14528;SDS011;7351;51.194;4.098;2022-10-16T16:41:18;5.23;;;3.30;;
14528;SDS011;7351;51.194;4.098;2022-10-16T16:43:47;5.13;;;3.97;;
14528;SDS011;7351;51.194;4.098;2022-10-16T16:46:16;4.60;;;3.87;;
14528;SDS011;7351;51.194;4.098;2022-10-16T16:48:44;5.80;;;4.53;;
14528;SDS011;7351;51.194;4.098;2022-10-16T16:51:13;6.17;;;5.57;;
14528;SDS011;7351;51.194;4.098;2022-10-16T16:53:43;7.07;;;5.90;;
14528;SDS011;7351;51.194;4.098;2022-10-16T16:56:12;7.47;;;5.47;;
14528;SDS011;7351;51.194;4.098;2022-10-16T16:58:39;11.90;;;7.07;;
14528;SDS011;7351;51.194;4.098;2022-10-16T17:01:08;11.83;;;7.67;;
14528;SDS011;7351;51.194;4.098;2022-10-16T17:03:36;12.47;;;8.90;;
14528;SDS011;7351;51.194;4.098;2022-10-16T17:06:04;10.17;;;8.97;;
14528;SDS011;7351;51.194;4.098;2022-10-16T17:08:34;9.37;;;8.47;;
14528;SDS011;7351;51.194;4.098;2022-10-16T17:11:02;10.67;;;7.77;;
14528;SDS011;7351;51.194;4.098;2022-10-16T17:13:29;8.37;;;7.57;;
14528;SDS011;7351;51.194;4.098;2022-10-16T17:15:59;9.80;;;8.83;;
14528;SDS011;7351;51.194;4.098;2022-10-16T17:18:27;21.23;;;11.17;;
14528;SDS011;7351;51.194;4.098;2022-10-16T17:20:54;17.23;;;13.40;;
14528;SDS011;7351;51.194;4.098;2022-10-16T17:23:21;18.60;;;16.50;;
14528;SDS011;7351;51.194;4.098;2022-10-16T17:25:49;16.40;;;15.10;;
14528;SDS011;7351;51.194;4.098;2022-10-16T17:28:16;13.63;;;12.53;;
14528;SDS011;7351;51.194;4.098;2022-10-16T17:30:43;14.70;;;9.80;;
14528;SDS011;7351;51.194;4.098;2022-10-16T17:33:11;9.60;;;8.00;;
14528;SDS011;7351;51.194;4.098;2022-10-16T17:35:41;9.93;;;6.93;;
14528;SDS011;7351;51.194;4.098;2022-10-16T17:38:10;15.53;;;9.83;;
14528;SDS011;7351;51.194;4.098;2022-10-16T17:40:39;11.07;;;7.77;;
14528;SDS011;7351;51.194;4.098;2022-10-16T17:43:09;7.67;;;5.90;;
14528;SDS011;7351;51.194;4.098;2022-10-16T17:45:36;11.90;;;6.97;;
14528;SDS011;7351;51.194;4.098;2022-10-16T17:48:03;16.27;;;7.70;;
14528;SDS011;7351;51.194;4.098;2022-10-16T17:50:31;9.87;;;7.77;;
14528;SDS011;7351;51.194;4.098;2022-10-16T17:52:58;11.80;;;7.70;;
14528;SDS011;7351;51.194;4.098;2022-10-16T17:55:25;11.37;;;7.53;;
14528;SDS011;7351;51.194;4.098;2022-10-16T17:57:52;17.13;;;9.80;;
14528;SDS011;7351;51.194;4.098;2022-10-16T18:00:21;9.77;;;7.97;;
14528;SDS011;7351;51.194;4.098;2022-10-16T18:02:48;10.43;;;7.43;;
14528;SDS011;7351;51.194;4.098;2022-10-16T18:05:15;12.53;;;7.60;;
14528;SDS011;7351;51.194;4.098;2022-10-16T18:07:42;9.63;;;6.97;;
14528;SDS011;7351;51.194;4.098;2022-10-16T18:10:09;15.67;;;7.93;;
14528;SDS011;7351;51.194;4.098;2022-10-16T18:12:37;11.67;;;6.93;;
14528;SDS011;7351;51.194;4.098;2022-10-16T18:15:04;13.33;;;8.97;;
14528;SDS011;7351;51.194;4.098;2022-10-16T18:17:35;9.17;;;7.10;;
14528;SDS011;7351;51.194;4.098;2022-10-16T18:20:02;13.33;;;7.93;;
14528;SDS011;7351;51.194;4.098;2022-10-16T18:22:31;12.27;;;9.00;;
14528;SDS011;7351;51.194;4.098;2022-10-16T18:25:00;13.30;;;10.53;;
14528;SDS011;7351;51.194;4.098;2022-10-16T18:27:28;9.73;;;7.80;;
14528;SDS011;7351;51.194;4.098;2022-10-16T18:29:55;11.27;;;7.40;;
14528;SDS011;7351;51.194;4.098;2022-10-16T18:32:22;7.80;;;7.00;;
14528;SDS011;7351;51.194;4.098;2022-10-16T18:34:51;8.93;;;6.80;;
14528;SDS011;7351;51.194;4.098;2022-10-16T18:37:18;9.90;;;5.77;;
14528;SDS011;7351;51.194;4.098;2022-10-16T18:39:46;8.63;;;5.77;;
14528;SDS011;7351;51.194;4.098;2022-10-16T18:42:13;6.33;;;5.73;;
14528;SDS011;7351;51.194;4.098;2022-10-16T18:44:40;7.67;;;6.90;;
14528;SDS011;7351;51.194;4.098;2022-10-16T18:47:07;10.70;;;7.17;;
14528;SDS011;7351;51.194;4.098;2022-10-16T18:49:34;7.33;;;6.10;;
14528;SDS011;7351;51.194;4.098;2022-10-16T18:52:03;13.73;;;6.10;;
14528;SDS011;7351;51.194;4.098;2022-10-16T18:54:31;7.03;;;5.80;;
14528;SDS011;7351;51.194;4.098;2022-10-16T18:56:58;7.33;;;6.63;;
14528;SDS011;7351;51.194;4.098;2022-10-16T18:59:25;8.03;;;7.20;;
14528;SDS011;7351;51.194;4.098;2022-10-16T19:01:52;7.60;;;7.00;;
14528;SDS011;7351;51.194;4.098;2022-10-16T19:04:20;7.57;;;6.90;;
14528;SDS011;7351;51.194;4.098;2022-10-16T19:06:49;8.03;;;7.43;;
14528;SDS011;7351;51.194;4.098;2022-10-16T19:09:20;8.63;;;7.67;;
14528;SDS011;7351;51.194;4.098;2022-10-16T19:11:49;8.83;;;7.27;;
14528;SDS011;7351;51.194;4.098;2022-10-16T19:14:21;12.00;;;7.90;;
14528;SDS011;7351;51.194;4.098;2022-10-16T19:16:49;10.27;;;7.83;;
14528;SDS011;7351;51.194;4.098;2022-10-16T19:19:16;7.93;;;7.23;;
14528;SDS011;7351;51.194;4.098;2022-10-16T19:21:44;9.97;;;8.97;;
14528;SDS011;7351;51.194;4.098;2022-10-16T19:24:12;10.47;;;8.13;;
14528;SDS011;7351;51.194;4.098;2022-10-16T19:26:42;8.67;;;7.97;;
14528;SDS011;7351;51.194;4.098;2022-10-16T19:29:09;7.70;;;7.07;;
14528;SDS011;7351;51.194;4.098;2022-10-16T19:31:37;8.87;;;7.80;;
14528;SDS011;7351;51.194;4.098;2022-10-16T19:34:04;7.37;;;6.73;;
14528;SDS011;7351;51.194;4.098;2022-10-16T19:36:32;6.53;;;6.03;;
14528;SDS011;7351;51.194;4.098;2022-10-16T19:39:02;12.23;;;6.93;;
14528;SDS011;7351;51.194;4.098;2022-10-16T19:41:30;10.00;;;6.70;;
14528;SDS011;7351;51.194;4.098;2022-10-16T19:44:01;7.80;;;7.07;;
14528;SDS011;7351;51.194;4.098;2022-10-16T19:46:28;9.63;;;8.70;;
14528;SDS011;7351;51.194;4.098;2022-10-16T19:48:56;10.27;;;7.80;;
14528;SDS011;7351;51.194;4.098;2022-10-16T19:51:25;11.30;;;8.10;;
14528;SDS011;7351;51.194;4.098;2022-10-16T19:53:54;9.47;;;8.77;;
14528;SDS011;7351;51.194;4.098;2022-10-16T19:56:22;10.70;;;9.67;;
14528;SDS011;7351;51.194;4.098;2022-10-16T19:58:51;9.23;;;8.33;;
14528;SDS011;7351;51.194;4.098;2022-10-16T20:01:21;10.10;;;9.10;;
14528;SDS011;7351;51.194;4.098;2022-10-16T20:03:49;9.00;;;7.77;;
14528;SDS011;7351;51.194;4.098;2022-10-16T20:06:19;8.87;;;7.70;;
14528;SDS011;7351;51.194;4.098;2022-10-16T20:08:47;9.37;;;7.60;;
14528;SDS011;7351;51.194;4.098;2022-10-16T20:11:16;9.00;;;7.93;;
14528;SDS011;7351;51.194;4.098;2022-10-16T20:13:45;9.03;;;8.33;;
14528;SDS011;7351;51.194;4.098;2022-10-16T20:16:13;10.93;;;9.53;;
14528;SDS011;7351;51.194;4.098;2022-10-16T20:18:44;11.30;;;8.60;;
14528;SDS011;7351;51.194;4.098;2022-10-16T20:21:13;9.43;;;8.13;;
14528;SDS011;7351;51.194;4.098;2022-10-16T20:23:44;13.23;;;11.83;;
14528;SDS011;7351;51.194;4.098;2022-10-16T20:26:13;12.00;;;9.40;;
14528;SDS011;7351;51.194;4.098;2022-10-16T20:28:41;11.33;;;10.27;;
14528;SDS011;7351;51.194;4.098;2022-10-16T20:31:09;11.60;;;10.53;;
14528;SDS011;7351;51.194;4.098;2022-10-16T20:33:39;12.50;;;11.30;;
14528;SDS011;7351;51.194;4.098;2022-10-16T20:36:10;14.27;;;13.10;;
14528;SDS011;7351;51.194;4.098;2022-10-16T20:38:38;14.97;;;13.67;;
14528;SDS011;7351;51.194;4.098;2022-10-16T20:41:05;14.93;;;13.67;;
14528;SDS011;7351;51.194;4.098;2022-10-16T20:43:33;16.43;;;14.83;;
14528;SDS011;7351;51.194;4.098;2022-10-16T20:46:01;15.93;;;14.57;;
14528;SDS011;7351;51.194;4.098;2022-10-16T20:48:30;17.00;;;14.30;;
14528;SDS011;7351;51.194;4.098;2022-10-16T20:50:57;12.60;;;11.80;;
14528;SDS011;7351;51.194;4.098;2022-10-16T20:53:26;13.43;;;12.17;;
14528;SDS011;7351;51.194;4.098;2022-10-16T20:55:53;11.53;;;10.53;;
14528;SDS011;7351;51.194;4.098;2022-10-16T20:58:20;10.57;;;9.73;;
14528;SDS011;7351;51.194;4.098;2022-10-16T21:00:47;12.00;;;10.80;;
14528;SDS011;7351;51.194;4.098;2022-10-16T21:03:15;10.00;;;9.20;;
14528;SDS011;7351;51.194;4.098;2022-10-16T21:05:42;10.10;;;9.27;;
14528;SDS011;7351;51.194;4.098;2022-10-16T21:08:09;8.73;;;8.03;;
14528;SDS011;7351;51.194;4.098;2022-10-16T21:10:37;10.07;;;9.17;;
14528;SDS011;7351;51.194;4.098;2022-10-16T21:13:04;14.43;;;9.73;;
14528;SDS011;7351;51.194;4.098;2022-10-16T21:15:31;12.10;;;10.90;;
14528;SDS011;7351;51.194;4.098;2022-10-16T21:17:58;12.77;;;11.43;;
14528;SDS011;7351;51.194;4.098;2022-10-16T21:20:25;12.80;;;11.73;;
14528;SDS011;7351;51.194;4.098;2022-10-16T21:22:52;12.97;;;11.70;;
14528;SDS011;7351;51.194;4.098;2022-10-16T21:25:19;14.00;;;12.77;;
14528;SDS011;7351;51.194;4.098;2022-10-16T21:27:48;12.90;;;11.90;;
14528;SDS011;7351;51.194;4.098;2022-10-16T21:30:15;15.37;;;13.93;;
14528;SDS011;7351;51.194;4.098;2022-10-16T21:32:42;14.80;;;13.47;;
14528;SDS011;7351;51.194;4.098;2022-10-16T21:35:09;13.07;;;11.90;;
14528;SDS011;7351;51.194;4.098;2022-10-16T21:37:36;13.57;;;12.33;;
14528;SDS011;7351;51.194;4.098;2022-10-16T21:40:03;14.03;;;12.70;;
14528;SDS011;7351;51.194;4.098;2022-10-16T21:42:31;13.87;;;12.60;;
14528;SDS011;7351;51.194;4.098;2022-10-16T21:44:59;13.10;;;11.40;;
14528;SDS011;7351;51.194;4.098;2022-10-16T21:47:26;12.63;;;11.33;;
14528;SDS011;7351;51.194;4.098;2022-10-16T21:49:53;13.83;;;11.87;;
14528;SDS011;7351;51.194;4.098;2022-10-16T21:52:20;12.40;;;11.60;;
14528;SDS011;7351;51.194;4.098;2022-10-16T21:54:48;13.43;;;12.43;;
14528;SDS011;7351;51.194;4.098;2022-10-16T21:57:15;14.00;;;12.70;;
14528;SDS011;7351;51.194;4.098;2022-10-16T21:59:42;13.53;;;11.83;;
14528;SDS011;7351;51.194;4.098;2022-10-16T22:02:11;12.63;;;11.17;;
14528;SDS011;7351;51.194;4.098;2022-10-16T22:04:38;12.83;;;11.50;;
14528;SDS011;7351;51.194;4.098;2022-10-16T22:07:05;11.93;;;11.07;;
14528;SDS011;7351;51.194;4.098;2022-10-16T22:09:32;11.97;;;10.80;;
14528;SDS011;7351;51.194;4.098;2022-10-16T22:11:59;11.30;;;10.20;;
14528;SDS011;7351;51.194;4.098;2022-10-16T22:14:26;10.90;;;9.93;;
14528;SDS011;7351;51.194;4.098;2022-10-16T22:16:53;10.30;;;9.30;;
14528;SDS011;7351;51.194;4.098;2022-10-16T22:19:21;9.70;;;9.00;;
14528;SDS011;7351;51.194;4.098;2022-10-16T22:21:48;10.80;;;10.10;;
14528;SDS011;7351;51.194;4.098;2022-10-16T22:24:18;11.67;;;10.53;;
14528;SDS011;7351;51.194;4.098;2022-10-16T22:26:45;11.27;;;9.90;;
14528;SDS011;7351;51.194;4.098;2022-10-16T22:29:13;10.43;;;9.60;;
14528;SDS011;7351;51.194;4.098;2022-10-16T22:31:41;11.73;;;10.77;;
14528;SDS011;7351;51.194;4.098;2022-10-16T22:34:09;11.80;;;10.53;;
14528;SDS011;7351;51.194;4.098;2022-10-16T22:36:39;11.90;;;10.93;;
14528;SDS011;7351;51.194;4.098;2022-10-16T22:39:06;10.87;;;9.80;;
14528;SDS011;7351;51.194;4.098;2022-10-16T22:41:33;12.87;;;11.77;;
14528;SDS011;7351;51.194;4.098;2022-10-16T22:44:00;11.27;;;10.40;;
14528;SDS011;7351;51.194;4.098;2022-10-16T22:46:28;11.70;;;10.60;;
14528;SDS011;7351;51.194;4.098;2022-10-16T22:48:56;10.50;;;9.80;;
14528;SDS011;7351;51.194;4.098;2022-10-16T22:51:24;12.03;;;11.03;;
14528;SDS011;7351;51.194;4.098;2022-10-16T22:53:55;11.40;;;10.60;;
14528;SDS011;7351;51.194;4.098;2022-10-16T22:56:23;11.40;;;10.50;;
14528;SDS011;7351;51.194;4.098;2022-10-16T22:58:50;11.63;;;10.73;;
14528;SDS011;7351;51.194;4.098;2022-10-16T23:01:18;10.87;;;9.90;;
14528;SDS011;7351;51.194;4.098;2022-10-16T23:03:47;12.07;;;10.90;;
14528;SDS011;7351;51.194;4.098;2022-10-16T23:06:14;12.47;;;11.27;;
14528;SDS011;7351;51.194;4.098;2022-10-16T23:08:41;12.10;;;10.93;;
14528;SDS011;7351;51.194;4.098;2022-10-16T23:11:10;11.37;;;10.63;;
14528;SDS011;7351;51.194;4.098;2022-10-16T23:13:39;11.17;;;10.10;;
14528;SDS011;7351;51.194;4.098;2022-10-16T23:16:09;11.77;;;10.70;;
14528;SDS011;7351;51.194;4.098;2022-10-16T23:18:38;11.93;;;11.03;;
14528;SDS011;7351;51.194;4.098;2022-10-16T23:21:05;13.53;;;12.37;;
14528;SDS011;7351;51.194;4.098;2022-10-16T23:23:34;13.40;;;12.33;;
14528;SDS011;7351;51.194;4.098;2022-10-16T23:26:02;15.37;;;14.10;;
14528;SDS011;7351;51.194;4.098;2022-10-16T23:28:30;12.80;;;11.90;;
14528;SDS011;7351;51.194;4.098;2022-10-16T23:30:57;13.07;;;12.17;;
14528;SDS011;7351;51.194;4.098;2022-10-16T23:33:25;12.53;;;11.50;;
14528;SDS011;7351;51.194;4.098;2022-10-16T23:35:52;12.87;;;11.87;;
14528;SDS011;7351;51.194;4.098;2022-10-16T23:38:19;14.10;;;12.80;;
14528;SDS011;7351;51.194;4.098;2022-10-16T23:40:46;13.87;;;12.77;;
14528;SDS011;7351;51.194;4.098;2022-10-16T23:43:13;14.13;;;12.70;;
14528;SDS011;7351;51.194;4.098;2022-10-16T23:45:42;14.03;;;12.87;;
14528;SDS011;7351;51.194;4.098;2022-10-16T23:48:09;13.87;;;12.53;;
14528;SDS011;7351;51.194;4.098;2022-10-16T23:50:39;14.33;;;13.13;;
14528;SDS011;7351;51.194;4.098;2022-10-16T23:53:06;15.87;;;14.67;;
14528;SDS011;7351;51.194;4.098;2022-10-16T23:55:33;14.33;;;13.10;;
14528;SDS011;7351;51.194;4.098;2022-10-16T23:58:00;13.70;;;12.67;;
